sensor_id;sensor_type;location;lat;lon;timestamp;P1;durP1;ratioP1;P2;durP2;ratioP2
78783;SDS011;68127;51.050;14.084;2023-11-18T00:01:04;5.43;;;2.78;;
78783;SDS011;68127;51.050;14.084;2023-11-18T00:03:30;5.60;;;2.83;;
78783;SDS011;68127;51.050;14.084;2023-11-18T00:05:55;4.10;;;2.40;;
78783;SDS011;68127;51.050;14.084;2023-11-18T00:08:20;4.43;;;2.65;;
78783;SDS011;68127;51.050;14.084;2023-11-18T00:10:46;5.25;;;2.92;;
78783;SDS011;68127;51.050;14.084;2023-11-18T00:13:12;5.20;;;3.03;;
78783;SDS011;68127;51.050;14.084;2023-11-18T00:15:37;4.85;;;2.97;;
78783;SDS011;68127;51.050;14.084;2023-11-18T00:18:02;5.22;;;2.80;;
78783;SDS011;68127;51.050;14.084;2023-11-18T00:20:28;5.15;;;2.75;;
78783;SDS011;68127;51.050;14.084;2023-11-18T00:22:55;4.95;;;3.03;;
78783;SDS011;68127;51.050;14.084;2023-11-18T00:25:21;5.38;;;2.80;;
78783;SDS011;68127;51.050;14.084;2023-11-18T00:27:46;5.43;;;3.17;;
78783;SDS011;68127;51.050;14.084;2023-11-18T00:30:11;5.90;;;3.60;;
78783;SDS011;68127;51.050;14.084;2023-11-18T00:32:37;5.80;;;3.20;;
78783;SDS011;68127;51.050;14.084;2023-11-18T00:35:03;5.18;;;2.97;;
78783;SDS011;68127;51.050;14.084;2023-11-18T00:37:32;5.22;;;3.30;;
78783;SDS011;68127;51.050;14.084;2023-11-18T00:39:58;5.88;;;3.20;;
78783;SDS011;68127;51.050;14.084;2023-11-18T00:42:23;5.97;;;3.38;;
78783;SDS011;68127;51.050;14.084;2023-11-18T00:44:48;6.70;;;3.42;;
78783;SDS011;68127;51.050;14.084;2023-11-18T00:47:14;5.70;;;2.97;;
78783;SDS011;68127;51.050;14.084;2023-11-18T00:49:39;7.18;;;3.03;;
78783;SDS011;68127;51.050;14.084;2023-11-18T00:52:05;4.85;;;2.92;;
78783;SDS011;68127;51.050;14.084;2023-11-18T00:54:30;6.22;;;3.17;;
78783;SDS011;68127;51.050;14.084;2023-11-18T00:56:55;5.70;;;3.28;;
78783;SDS011;68127;51.050;14.084;2023-11-18T00:59:21;6.32;;;3.25;;
78783;SDS011;68127;51.050;14.084;2023-11-18T01:01:46;7.05;;;3.85;;
78783;SDS011;68127;51.050;14.084;2023-11-18T01:04:11;6.15;;;3.08;;
78783;SDS011;68127;51.050;14.084;2023-11-18T01:06:36;6.00;;;3.45;;
78783;SDS011;68127;51.050;14.084;2023-11-18T01:09:02;7.45;;;4.00;;
78783;SDS011;68127;51.050;14.084;2023-11-18T01:11:27;8.15;;;3.75;;
78783;SDS011;68127;51.050;14.084;2023-11-18T01:13:52;5.97;;;3.63;;
78783;SDS011;68127;51.050;14.084;2023-11-18T01:16:19;7.50;;;4.30;;
78783;SDS011;68127;51.050;14.084;2023-11-18T01:18:44;7.60;;;4.20;;
78783;SDS011;68127;51.050;14.084;2023-11-18T01:21:10;7.70;;;4.47;;
78783;SDS011;68127;51.050;14.084;2023-11-18T01:23:36;7.18;;;4.13;;
78783;SDS011;68127;51.050;14.084;2023-11-18T01:26:05;8.35;;;4.10;;
78783;SDS011;68127;51.050;14.084;2023-11-18T01:28:31;7.05;;;4.30;;
78783;SDS011;68127;51.050;14.084;2023-11-18T01:31:01;8.15;;;4.13;;
78783;SDS011;68127;51.050;14.084;2023-11-18T01:33:28;7.72;;;4.20;;
78783;SDS011;68127;51.050;14.084;2023-11-18T01:35:54;8.48;;;4.40;;
78783;SDS011;68127;51.050;14.084;2023-11-18T01:38:20;7.30;;;4.20;;
78783;SDS011;68127;51.050;14.084;2023-11-18T01:40:45;7.20;;;4.25;;
78783;SDS011;68127;51.050;14.084;2023-11-18T01:43:11;7.70;;;4.75;;
78783;SDS011;68127;51.050;14.084;2023-11-18T01:45:38;6.85;;;4.28;;
78783;SDS011;68127;51.050;14.084;2023-11-18T01:48:05;9.02;;;4.88;;
78783;SDS011;68127;51.050;14.084;2023-11-18T01:50:31;9.25;;;4.53;;
78783;SDS011;68127;51.050;14.084;2023-11-18T01:52:57;10.25;;;4.88;;
78783;SDS011;68127;51.050;14.084;2023-11-18T01:55:22;7.00;;;4.25;;
78783;SDS011;68127;51.050;14.084;2023-11-18T01:57:47;8.60;;;4.60;;
78783;SDS011;68127;51.050;14.084;2023-11-18T02:00:14;8.73;;;4.75;;
78783;SDS011;68127;51.050;14.084;2023-11-18T02:02:42;9.00;;;4.55;;
78783;SDS011;68127;51.050;14.084;2023-11-18T02:05:08;8.82;;;4.60;;
78783;SDS011;68127;51.050;14.084;2023-11-18T02:07:33;7.55;;;4.68;;
78783;SDS011;68127;51.050;14.084;2023-11-18T02:10:01;7.78;;;4.20;;
78783;SDS011;68127;51.050;14.084;2023-11-18T02:12:33;7.40;;;4.53;;
78783;SDS011;68127;51.050;14.084;2023-11-18T02:15:13;9.13;;;4.97;;
78783;SDS011;68127;51.050;14.084;2023-11-18T02:17:39;8.60;;;4.70;;
78783;SDS011;68127;51.050;14.084;2023-11-18T02:20:07;8.45;;;4.50;;
78783;SDS011;68127;51.050;14.084;2023-11-18T02:22:41;7.15;;;4.57;;
78783;SDS011;68127;51.050;14.084;2023-11-18T02:25:08;10.57;;;5.57;;
78783;SDS011;68127;51.050;14.084;2023-11-18T02:27:35;8.65;;;4.60;;
78783;SDS011;68127;51.050;14.084;2023-11-18T02:30:00;9.23;;;4.65;;
78783;SDS011;68127;51.050;14.084;2023-11-18T02:32:33;9.90;;;4.43;;
78783;SDS011;68127;51.050;14.084;2023-11-18T02:35:06;9.50;;;5.05;;
78783;SDS011;68127;51.050;14.084;2023-11-18T02:37:35;9.30;;;5.05;;
78783;SDS011;68127;51.050;14.084;2023-11-18T02:40:04;7.35;;;4.05;;
78783;SDS011;68127;51.050;14.084;2023-11-18T02:42:34;8.80;;;4.95;;
78783;SDS011;68127;51.050;14.084;2023-11-18T02:45:00;9.38;;;5.03;;
78783;SDS011;68127;51.050;14.084;2023-11-18T02:47:26;9.15;;;4.68;;
78783;SDS011;68127;51.050;14.084;2023-11-18T02:49:55;8.45;;;4.22;;
78783;SDS011;68127;51.050;14.084;2023-11-18T02:52:21;7.35;;;3.97;;
78783;SDS011;68127;51.050;14.084;2023-11-18T02:54:47;8.75;;;4.68;;
78783;SDS011;68127;51.050;14.084;2023-11-18T02:57:13;8.32;;;4.25;;
78783;SDS011;68127;51.050;14.084;2023-11-18T02:59:38;8.60;;;4.60;;
78783;SDS011;68127;51.050;14.084;2023-11-18T03:02:04;7.15;;;3.97;;
78783;SDS011;68127;51.050;14.084;2023-11-18T03:04:31;9.00;;;5.13;;
78783;SDS011;68127;51.050;14.084;2023-11-18T03:06:56;8.73;;;4.85;;
78783;SDS011;68127;51.050;14.084;2023-11-18T03:09:21;11.25;;;4.97;;
78783;SDS011;68127;51.050;14.084;2023-11-18T03:11:46;7.45;;;4.32;;
78783;SDS011;68127;51.050;14.084;2023-11-18T03:14:12;8.23;;;3.70;;
78783;SDS011;68127;51.050;14.084;2023-11-18T03:16:37;9.38;;;4.80;;
78783;SDS011;68127;51.050;14.084;2023-11-18T03:19:03;9.13;;;4.80;;
78783;SDS011;68127;51.050;14.084;2023-11-18T03:21:29;7.85;;;4.35;;
78783;SDS011;68127;51.050;14.084;2023-11-18T03:23:55;8.85;;;3.92;;
78783;SDS011;68127;51.050;14.084;2023-11-18T03:26:20;8.63;;;3.78;;
78783;SDS011;68127;51.050;14.084;2023-11-18T03:28:46;8.73;;;4.63;;
78783;SDS011;68127;51.050;14.084;2023-11-18T03:31:11;11.75;;;4.05;;
78783;SDS011;68127;51.050;14.084;2023-11-18T03:33:37;7.82;;;4.13;;
78783;SDS011;68127;51.050;14.084;2023-11-18T03:36:02;7.55;;;4.30;;
78783;SDS011;68127;51.050;14.084;2023-11-18T03:38:28;9.23;;;4.30;;
78783;SDS011;68127;51.050;14.084;2023-11-18T03:40:53;7.45;;;4.28;;
78783;SDS011;68127;51.050;14.084;2023-11-18T03:43:19;7.30;;;3.80;;
78783;SDS011;68127;51.050;14.084;2023-11-18T03:45:45;7.95;;;4.00;;
78783;SDS011;68127;51.050;14.084;2023-11-18T03:48:10;6.93;;;4.00;;
78783;SDS011;68127;51.050;14.084;2023-11-18T03:50:39;6.53;;;3.60;;
78783;SDS011;68127;51.050;14.084;2023-11-18T03:53:05;8.38;;;3.85;;
78783;SDS011;68127;51.050;14.084;2023-11-18T03:55:30;7.65;;;4.05;;
78783;SDS011;68127;51.050;14.084;2023-11-18T03:57:56;7.68;;;4.15;;
78783;SDS011;68127;51.050;14.084;2023-11-18T04:00:22;7.40;;;3.95;;
78783;SDS011;68127;51.050;14.084;2023-11-18T04:02:47;8.32;;;4.28;;
78783;SDS011;68127;51.050;14.084;2023-11-18T04:05:13;8.07;;;4.57;;
78783;SDS011;68127;51.050;14.084;2023-11-18T04:07:38;7.40;;;3.92;;
78783;SDS011;68127;51.050;14.084;2023-11-18T04:10:07;8.73;;;4.07;;
78783;SDS011;68127;51.050;14.084;2023-11-18T04:12:35;8.93;;;4.45;;
78783;SDS011;68127;51.050;14.084;2023-11-18T04:15:00;7.93;;;4.40;;
78783;SDS011;68127;51.050;14.084;2023-11-18T04:17:25;6.63;;;3.90;;
78783;SDS011;68127;51.050;14.084;2023-11-18T04:19:53;8.18;;;4.32;;
78783;SDS011;68127;51.050;14.084;2023-11-18T04:22:20;7.50;;;3.85;;
78783;SDS011;68127;51.050;14.084;2023-11-18T04:24:46;8.05;;;3.97;;
78783;SDS011;68127;51.050;14.084;2023-11-18T04:27:12;8.43;;;4.18;;
78783;SDS011;68127;51.050;14.084;2023-11-18T04:29:37;6.75;;;3.63;;
78783;SDS011;68127;51.050;14.084;2023-11-18T04:32:03;6.90;;;3.80;;
78783;SDS011;68127;51.050;14.084;2023-11-18T04:34:28;7.75;;;4.28;;
78783;SDS011;68127;51.050;14.084;2023-11-18T04:36:54;7.85;;;4.15;;
78783;SDS011;68127;51.050;14.084;2023-11-18T04:39:19;6.60;;;3.70;;
78783;SDS011;68127;51.050;14.084;2023-11-18T04:41:46;9.27;;;4.35;;
78783;SDS011;68127;51.050;14.084;2023-11-18T04:44:11;8.52;;;4.18;;
78783;SDS011;68127;51.050;14.084;2023-11-18T04:46:37;7.03;;;4.00;;
78783;SDS011;68127;51.050;14.084;2023-11-18T04:49:02;8.05;;;3.90;;
78783;SDS011;68127;51.050;14.084;2023-11-18T04:51:27;8.25;;;3.95;;
78783;SDS011;68127;51.050;14.084;2023-11-18T04:53:53;10.05;;;4.50;;
78783;SDS011;68127;51.050;14.084;2023-11-18T04:56:18;7.97;;;3.70;;
78783;SDS011;68127;51.050;14.084;2023-11-18T04:58:44;7.90;;;4.47;;
78783;SDS011;68127;51.050;14.084;2023-11-18T05:01:11;9.30;;;4.40;;
78783;SDS011;68127;51.050;14.084;2023-11-18T05:03:37;8.68;;;4.70;;
78783;SDS011;68127;51.050;14.084;2023-11-18T05:06:03;8.65;;;4.60;;
78783;SDS011;68127;51.050;14.084;2023-11-18T05:08:29;7.93;;;4.40;;
78783;SDS011;68127;51.050;14.084;2023-11-18T05:10:54;8.10;;;4.60;;
78783;SDS011;68127;51.050;14.084;2023-11-18T05:13:20;7.43;;;4.03;;
78783;SDS011;68127;51.050;14.084;2023-11-18T05:15:46;10.70;;;5.00;;
78783;SDS011;68127;51.050;14.084;2023-11-18T05:18:12;8.48;;;4.25;;
78783;SDS011;68127;51.050;14.084;2023-11-18T05:20:41;9.68;;;4.28;;
78783;SDS011;68127;51.050;14.084;2023-11-18T05:23:07;8.80;;;4.47;;
78783;SDS011;68127;51.050;14.084;2023-11-18T05:25:35;8.35;;;4.68;;
78783;SDS011;68127;51.050;14.084;2023-11-18T05:28:01;8.38;;;4.97;;
78783;SDS011;68127;51.050;14.084;2023-11-18T05:30:26;8.93;;;4.78;;
78783;SDS011;68127;51.050;14.084;2023-11-18T05:32:51;9.13;;;5.13;;
78783;SDS011;68127;51.050;14.084;2023-11-18T05:35:17;9.77;;;4.40;;
78783;SDS011;68127;51.050;14.084;2023-11-18T05:37:42;7.03;;;4.13;;
78783;SDS011;68127;51.050;14.084;2023-11-18T05:40:08;8.27;;;4.40;;
78783;SDS011;68127;51.050;14.084;2023-11-18T05:42:36;8.90;;;4.75;;
78783;SDS011;68127;51.050;14.084;2023-11-18T05:45:05;8.82;;;5.43;;
78783;SDS011;68127;51.050;14.084;2023-11-18T05:47:32;11.77;;;5.97;;
78783;SDS011;68127;51.050;14.084;2023-11-18T05:49:57;8.10;;;4.72;;
78783;SDS011;68127;51.050;14.084;2023-11-18T05:52:23;9.77;;;5.50;;
78783;SDS011;68127;51.050;14.084;2023-11-18T05:54:48;11.43;;;5.07;;
78783;SDS011;68127;51.050;14.084;2023-11-18T05:57:16;8.57;;;4.90;;
78783;SDS011;68127;51.050;14.084;2023-11-18T05:59:42;9.70;;;5.03;;
78783;SDS011;68127;51.050;14.084;2023-11-18T06:02:08;8.85;;;4.80;;
78783;SDS011;68127;51.050;14.084;2023-11-18T06:04:33;9.75;;;5.03;;
78783;SDS011;68127;51.050;14.084;2023-11-18T06:07:00;10.02;;;5.95;;
78783;SDS011;68127;51.050;14.084;2023-11-18T06:09:27;8.63;;;5.38;;
78783;SDS011;68127;51.050;14.084;2023-11-18T06:11:53;10.32;;;5.55;;
78783;SDS011;68127;51.050;14.084;2023-11-18T06:14:19;8.98;;;5.28;;
78783;SDS011;68127;51.050;14.084;2023-11-18T06:16:46;11.65;;;4.88;;
78783;SDS011;68127;51.050;14.084;2023-11-18T06:19:12;8.25;;;5.03;;
78783;SDS011;68127;51.050;14.084;2023-11-18T06:21:38;10.07;;;5.40;;
78783;SDS011;68127;51.050;14.084;2023-11-18T06:24:04;11.10;;;5.32;;
78783;SDS011;68127;51.050;14.084;2023-11-18T06:26:30;10.40;;;5.70;;
78783;SDS011;68127;51.050;14.084;2023-11-18T06:28:56;10.18;;;5.63;;
78783;SDS011;68127;51.050;14.084;2023-11-18T06:31:21;9.80;;;5.72;;
78783;SDS011;68127;51.050;14.084;2023-11-18T06:33:48;10.07;;;6.40;;
78783;SDS011;68127;51.050;14.084;2023-11-18T06:38:40;10.77;;;5.85;;
78783;SDS011;68127;51.050;14.084;2023-11-18T06:41:05;9.30;;;5.38;;
78783;SDS011;68127;51.050;14.084;2023-11-18T06:43:34;9.68;;;5.55;;
78783;SDS011;68127;51.050;14.084;2023-11-18T06:46:16;9.50;;;5.40;;
78783;SDS011;68127;51.050;14.084;2023-11-18T06:48:45;9.95;;;5.30;;
78783;SDS011;68127;51.050;14.084;2023-11-18T06:51:11;11.52;;;5.88;;
78783;SDS011;68127;51.050;14.084;2023-11-18T06:53:36;10.07;;;5.60;;
78783;SDS011;68127;51.050;14.084;2023-11-18T06:56:01;8.63;;;5.20;;
78783;SDS011;68127;51.050;14.084;2023-11-18T06:58:27;10.93;;;5.57;;
78783;SDS011;68127;51.050;14.084;2023-11-18T07:00:52;11.43;;;5.53;;
78783;SDS011;68127;51.050;14.084;2023-11-18T07:03:18;10.30;;;6.15;;
78783;SDS011;68127;51.050;14.084;2023-11-18T07:05:43;11.30;;;5.55;;
78783;SDS011;68127;51.050;14.084;2023-11-18T07:08:09;11.93;;;6.10;;
78783;SDS011;68127;51.050;14.084;2023-11-18T07:10:34;10.18;;;5.78;;
78783;SDS011;68127;51.050;14.084;2023-11-18T07:13:03;11.00;;;5.80;;
78783;SDS011;68127;51.050;14.084;2023-11-18T07:15:28;11.65;;;6.18;;
78783;SDS011;68127;51.050;14.084;2023-11-18T07:17:53;11.55;;;5.78;;
78783;SDS011;68127;51.050;14.084;2023-11-18T07:20:19;9.32;;;5.53;;
78783;SDS011;68127;51.050;14.084;2023-11-18T07:22:44;9.98;;;5.90;;
78783;SDS011;68127;51.050;14.084;2023-11-18T07:25:09;10.88;;;6.28;;
78783;SDS011;68127;51.050;14.084;2023-11-18T07:27:35;10.00;;;5.50;;
78783;SDS011;68127;51.050;14.084;2023-11-18T07:30:01;11.07;;;5.57;;
78783;SDS011;68127;51.050;14.084;2023-11-18T07:32:26;8.93;;;5.63;;
78783;SDS011;68127;51.050;14.084;2023-11-18T07:34:51;10.77;;;6.18;;
78783;SDS011;68127;51.050;14.084;2023-11-18T07:37:17;10.52;;;6.15;;
78783;SDS011;68127;51.050;14.084;2023-11-18T07:39:42;11.07;;;6.07;;
78783;SDS011;68127;51.050;14.084;2023-11-18T07:42:13;9.18;;;5.38;;
78783;SDS011;68127;51.050;14.084;2023-11-18T07:44:38;10.02;;;5.90;;
78783;SDS011;68127;51.050;14.084;2023-11-18T07:47:04;9.52;;;5.50;;
78783;SDS011;68127;51.050;14.084;2023-11-18T07:49:30;10.55;;;5.40;;
78783;SDS011;68127;51.050;14.084;2023-11-18T07:51:56;11.38;;;5.82;;
78783;SDS011;68127;51.050;14.084;2023-11-18T07:54:21;10.32;;;5.55;;
78783;SDS011;68127;51.050;14.084;2023-11-18T07:56:47;10.73;;;5.47;;
78783;SDS011;68127;51.050;14.084;2023-11-18T07:59:13;9.05;;;5.20;;
78783;SDS011;68127;51.050;14.084;2023-11-18T08:01:41;8.93;;;5.55;;
78783;SDS011;68127;51.050;14.084;2023-11-18T08:04:10;9.57;;;5.35;;
78783;SDS011;68127;51.050;14.084;2023-11-18T08:06:36;9.23;;;5.10;;
78783;SDS011;68127;51.050;14.084;2023-11-18T08:09:02;9.38;;;5.38;;
78783;SDS011;68127;51.050;14.084;2023-11-18T08:11:28;10.15;;;5.53;;
78783;SDS011;68127;51.050;14.084;2023-11-18T08:13:54;10.05;;;5.22;;
78783;SDS011;68127;51.050;14.084;2023-11-18T08:16:19;9.73;;;4.97;;
78783;SDS011;68127;51.050;14.084;2023-11-18T08:18:47;8.20;;;4.85;;
78783;SDS011;68127;51.050;14.084;2023-11-18T08:21:12;9.18;;;4.97;;
78783;SDS011;68127;51.050;14.084;2023-11-18T08:23:37;10.23;;;4.80;;
78783;SDS011;68127;51.050;14.084;2023-11-18T08:26:03;9.18;;;4.53;;
78783;SDS011;68127;51.050;14.084;2023-11-18T08:28:28;8.85;;;5.13;;
78783;SDS011;68127;51.050;14.084;2023-11-18T08:30:54;9.25;;;5.00;;
78783;SDS011;68127;51.050;14.084;2023-11-18T08:33:19;8.18;;;4.53;;
78783;SDS011;68127;51.050;14.084;2023-11-18T08:35:45;10.73;;;5.10;;
78783;SDS011;68127;51.050;14.084;2023-11-18T08:38:11;8.93;;;5.20;;
78783;SDS011;68127;51.050;14.084;2023-11-18T08:40:37;9.48;;;5.00;;
78783;SDS011;68127;51.050;14.084;2023-11-18T08:43:03;9.52;;;4.78;;
78783;SDS011;68127;51.050;14.084;2023-11-18T08:45:30;7.82;;;4.45;;
78783;SDS011;68127;51.050;14.084;2023-11-18T08:47:58;7.07;;;4.35;;
78783;SDS011;68127;51.050;14.084;2023-11-18T08:50:26;7.75;;;4.40;;
78783;SDS011;68127;51.050;14.084;2023-11-18T08:52:53;6.32;;;4.07;;
78783;SDS011;68127;51.050;14.084;2023-11-18T08:55:26;8.27;;;4.35;;
78783;SDS011;68127;51.050;14.084;2023-11-18T08:58:15;9.02;;;4.82;;
78783;SDS011;68127;51.050;14.084;2023-11-18T09:00:43;8.43;;;4.43;;
78783;SDS011;68127;51.050;14.084;2023-11-18T09:03:09;10.93;;;4.45;;
78783;SDS011;68127;51.050;14.084;2023-11-18T09:05:42;8.52;;;4.47;;
78783;SDS011;68127;51.050;14.084;2023-11-18T09:08:08;6.40;;;4.05;;
78783;SDS011;68127;51.050;14.084;2023-11-18T09:10:33;7.15;;;4.05;;
78783;SDS011;68127;51.050;14.084;2023-11-18T09:12:59;8.00;;;3.90;;
78783;SDS011;68127;51.050;14.084;2023-11-18T09:15:24;6.82;;;3.97;;
78783;SDS011;68127;51.050;14.084;2023-11-18T09:17:50;8.93;;;4.30;;
78783;SDS011;68127;51.050;14.084;2023-11-18T09:20:15;11.10;;;5.85;;
78783;SDS011;68127;51.050;14.084;2023-11-18T09:22:47;9.07;;;4.50;;
78783;SDS011;68127;51.050;14.084;2023-11-18T09:25:13;8.75;;;5.15;;
78783;SDS011;68127;51.050;14.084;2023-11-18T09:27:39;9.13;;;5.32;;
78783;SDS011;68127;51.050;14.084;2023-11-18T09:30:05;8.07;;;4.68;;
78783;SDS011;68127;51.050;14.084;2023-11-18T09:32:38;9.27;;;5.30;;
78783;SDS011;68127;51.050;14.084;2023-11-18T09:35:12;8.10;;;4.55;;
78783;SDS011;68127;51.050;14.084;2023-11-18T09:37:38;8.35;;;4.80;;
78783;SDS011;68127;51.050;14.084;2023-11-18T09:40:06;9.30;;;5.10;;
78783;SDS011;68127;51.050;14.084;2023-11-18T09:42:36;9.27;;;5.15;;
78783;SDS011;68127;51.050;14.084;2023-11-18T09:45:03;11.25;;;5.80;;
78783;SDS011;68127;51.050;14.084;2023-11-18T09:47:30;9.20;;;4.75;;
78783;SDS011;68127;51.050;14.084;2023-11-18T09:49:58;10.27;;;5.38;;
78783;SDS011;68127;51.050;14.084;2023-11-18T09:52:26;12.52;;;6.55;;
78783;SDS011;68127;51.050;14.084;2023-11-18T09:57:40;9.30;;;5.30;;
78783;SDS011;68127;51.050;14.084;2023-11-18T10:02:51;7.53;;;4.10;;
78783;SDS011;68127;51.050;14.084;2023-11-18T10:05:18;9.48;;;6.03;;
78783;SDS011;68127;51.050;14.084;2023-11-18T10:07:46;8.85;;;5.40;;
78783;SDS011;68127;51.050;14.084;2023-11-18T10:10:15;8.05;;;4.88;;
78783;SDS011;68127;51.050;14.084;2023-11-18T10:12:43;6.78;;;4.07;;
78783;SDS011;68127;51.050;14.084;2023-11-18T10:15:11;7.05;;;4.05;;
78783;SDS011;68127;51.050;14.084;2023-11-18T10:17:44;9.52;;;4.55;;
78783;SDS011;68127;51.050;14.084;2023-11-18T10:20:22;9.80;;;5.55;;
78783;SDS011;68127;51.050;14.084;2023-11-18T10:22:59;7.00;;;3.97;;
78783;SDS011;68127;51.050;14.084;2023-11-18T10:25:30;7.15;;;3.90;;
78783;SDS011;68127;51.050;14.084;2023-11-18T10:27:56;6.53;;;4.13;;
78783;SDS011;68127;51.050;14.084;2023-11-18T10:30:22;7.03;;;4.22;;
78783;SDS011;68127;51.050;14.084;2023-11-18T10:33:01;7.82;;;4.90;;
78783;SDS011;68127;51.050;14.084;2023-11-18T10:35:33;7.95;;;4.78;;
78783;SDS011;68127;51.050;14.084;2023-11-18T10:38:01;13.38;;;7.78;;
78783;SDS011;68127;51.050;14.084;2023-11-18T10:40:29;16.50;;;10.00;;
78783;SDS011;68127;51.050;14.084;2023-11-18T10:43:00;9.68;;;5.35;;
78783;SDS011;68127;51.050;14.084;2023-11-18T10:45:26;7.90;;;5.40;;
78783;SDS011;68127;51.050;14.084;2023-11-18T10:47:52;8.73;;;4.63;;
78783;SDS011;68127;51.050;14.084;2023-11-18T10:50:20;8.25;;;5.05;;
78783;SDS011;68127;51.050;14.084;2023-11-18T10:52:47;7.38;;;4.28;;
78783;SDS011;68127;51.050;14.084;2023-11-18T10:55:13;6.38;;;3.90;;
78783;SDS011;68127;51.050;14.084;2023-11-18T10:57:44;10.48;;;6.47;;
78783;SDS011;68127;51.050;14.084;2023-11-18T11:00:09;8.75;;;5.63;;
78783;SDS011;68127;51.050;14.084;2023-11-18T11:02:38;7.82;;;4.28;;
78783;SDS011;68127;51.050;14.084;2023-11-18T11:05:06;7.10;;;3.92;;
78783;SDS011;68127;51.050;14.084;2023-11-18T11:07:40;7.32;;;3.83;;
78783;SDS011;68127;51.050;14.084;2023-11-18T11:10:07;7.45;;;3.97;;
78783;SDS011;68127;51.050;14.084;2023-11-18T11:12:54;5.20;;;3.00;;
78783;SDS011;68127;51.050;14.084;2023-11-18T11:15:18;5.82;;;4.00;;
78783;SDS011;68127;51.050;14.084;2023-11-18T11:17:58;6.80;;;4.07;;
78783;SDS011;68127;51.050;14.084;2023-11-18T11:20:34;5.90;;;3.50;;
78783;SDS011;68127;51.050;14.084;2023-11-18T11:26:09;7.68;;;4.03;;
78783;SDS011;68127;51.050;14.084;2023-11-18T11:28:53;6.95;;;3.80;;
78783;SDS011;68127;51.050;14.084;2023-11-18T11:31:25;5.80;;;3.42;;
78783;SDS011;68127;51.050;14.084;2023-11-18T11:33:59;6.05;;;3.10;;
78783;SDS011;68127;51.050;14.084;2023-11-18T11:36:37;5.90;;;3.35;;
78783;SDS011;68127;51.050;14.084;2023-11-18T11:39:13;4.70;;;3.05;;
78783;SDS011;68127;51.050;14.084;2023-11-18T11:41:42;5.75;;;2.92;;
78783;SDS011;68127;51.050;14.084;2023-11-18T11:44:10;5.05;;;2.70;;
78783;SDS011;68127;51.050;14.084;2023-11-18T11:46:37;6.63;;;3.28;;
78783;SDS011;68127;51.050;14.084;2023-11-18T11:49:03;5.85;;;3.30;;
78783;SDS011;68127;51.050;14.084;2023-11-18T11:52:03;9.57;;;4.28;;
78783;SDS011;68127;51.050;14.084;2023-11-18T11:54:40;6.00;;;3.42;;
78783;SDS011;68127;51.050;14.084;2023-11-18T11:57:09;6.82;;;4.22;;
78783;SDS011;68127;51.050;14.084;2023-11-18T12:02:10;7.03;;;3.95;;
78783;SDS011;68127;51.050;14.084;2023-11-18T12:04:36;5.57;;;3.27;;
78783;SDS011;68127;51.050;14.084;2023-11-18T12:07:03;5.90;;;3.40;;
78783;SDS011;68127;51.050;14.084;2023-11-18T12:09:30;6.40;;;3.47;;
78783;SDS011;68127;51.050;14.084;2023-11-18T12:12:02;7.30;;;3.72;;
78783;SDS011;68127;51.050;14.084;2023-11-18T12:14:29;7.75;;;3.92;;
78783;SDS011;68127;51.050;14.084;2023-11-18T12:19:34;6.25;;;3.50;;
78783;SDS011;68127;51.050;14.084;2023-11-18T12:22:13;6.85;;;3.60;;
78783;SDS011;68127;51.050;14.084;2023-11-18T12:40:55;7.95;;;4.13;;
78783;SDS011;68127;51.050;14.084;2023-11-18T12:43:34;8.00;;;4.32;;
78783;SDS011;68127;51.050;14.084;2023-11-18T12:46:23;7.05;;;4.35;;
78783;SDS011;68127;51.050;14.084;2023-11-18T12:49:02;7.45;;;4.45;;
78783;SDS011;68127;51.050;14.084;2023-11-18T12:51:28;7.07;;;4.18;;
78783;SDS011;68127;51.050;14.084;2023-11-18T12:53:56;8.88;;;3.80;;
78783;SDS011;68127;51.050;14.084;2023-11-18T12:56:21;8.55;;;4.07;;
78783;SDS011;68127;51.050;14.084;2023-11-18T12:58:49;8.00;;;3.97;;
78783;SDS011;68127;51.050;14.084;2023-11-18T13:01:15;8.07;;;3.92;;
78783;SDS011;68127;51.050;14.084;2023-11-18T13:03:41;9.88;;;6.43;;
78783;SDS011;68127;51.050;14.084;2023-11-18T13:06:10;12.20;;;6.95;;
78783;SDS011;68127;51.050;14.084;2023-11-18T13:08:39;12.07;;;6.72;;
78783;SDS011;68127;51.050;14.084;2023-11-18T13:11:05;12.95;;;6.32;;
78783;SDS011;68127;51.050;14.084;2023-11-18T13:13:33;8.20;;;4.82;;
78783;SDS011;68127;51.050;14.084;2023-11-18T13:16:01;8.00;;;4.78;;
78783;SDS011;68127;51.050;14.084;2023-11-18T13:18:26;7.72;;;4.05;;
78783;SDS011;68127;51.050;14.084;2023-11-18T13:20:55;8.05;;;4.50;;
78783;SDS011;68127;51.050;14.084;2023-11-18T13:23:24;7.78;;;4.40;;
78783;SDS011;68127;51.050;14.084;2023-11-18T13:25:49;8.57;;;4.88;;
78783;SDS011;68127;51.050;14.084;2023-11-18T13:28:15;9.85;;;5.40;;
78783;SDS011;68127;51.050;14.084;2023-11-18T13:30:41;8.70;;;4.30;;
78783;SDS011;68127;51.050;14.084;2023-11-18T13:33:06;6.88;;;4.05;;
78783;SDS011;68127;51.050;14.084;2023-11-18T13:35:32;7.63;;;4.55;;
78783;SDS011;68127;51.050;14.084;2023-11-18T13:37:57;6.97;;;3.70;;
78783;SDS011;68127;51.050;14.084;2023-11-18T13:40:23;6.57;;;4.05;;
78783;SDS011;68127;51.050;14.084;2023-11-18T13:42:58;7.05;;;3.90;;
78783;SDS011;68127;51.050;14.084;2023-11-18T13:45:26;7.70;;;4.25;;
78783;SDS011;68127;51.050;14.084;2023-11-18T13:47:55;7.43;;;4.35;;
78783;SDS011;68127;51.050;14.084;2023-11-18T13:50:21;8.52;;;3.90;;
78783;SDS011;68127;51.050;14.084;2023-11-18T13:52:47;6.45;;;3.72;;
78783;SDS011;68127;51.050;14.084;2023-11-18T13:55:14;6.68;;;3.85;;
78783;SDS011;68127;51.050;14.084;2023-11-18T13:57:42;5.68;;;3.28;;
78783;SDS011;68127;51.050;14.084;2023-11-18T14:00:08;6.25;;;3.42;;
78783;SDS011;68127;51.050;14.084;2023-11-18T14:02:40;6.50;;;3.80;;
78783;SDS011;68127;51.050;14.084;2023-11-18T14:05:05;6.95;;;3.50;;
78783;SDS011;68127;51.050;14.084;2023-11-18T14:07:41;6.68;;;4.00;;
78783;SDS011;68127;51.050;14.084;2023-11-18T14:10:08;6.13;;;3.72;;
78783;SDS011;68127;51.050;14.084;2023-11-18T14:12:38;7.72;;;3.85;;
78783;SDS011;68127;51.050;14.084;2023-11-18T14:15:03;10.32;;;4.88;;
78783;SDS011;68127;51.050;14.084;2023-11-18T14:17:30;10.38;;;5.55;;
78783;SDS011;68127;51.050;14.084;2023-11-18T14:19:55;8.65;;;5.00;;
78783;SDS011;68127;51.050;14.084;2023-11-18T14:22:20;7.93;;;4.80;;
78783;SDS011;68127;51.050;14.084;2023-11-18T14:24:46;8.15;;;3.90;;
78783;SDS011;68127;51.050;14.084;2023-11-18T14:27:12;6.70;;;3.45;;
78783;SDS011;68127;51.050;14.084;2023-11-18T14:29:38;6.65;;;3.70;;
78783;SDS011;68127;51.050;14.084;2023-11-18T14:32:04;8.32;;;4.18;;
78783;SDS011;68127;51.050;14.084;2023-11-18T14:34:31;9.18;;;4.47;;
78783;SDS011;68127;51.050;14.084;2023-11-18T14:36:56;8.13;;;3.80;;
78783;SDS011;68127;51.050;14.084;2023-11-18T14:39:21;6.80;;;3.78;;
78783;SDS011;68127;51.050;14.084;2023-11-18T14:41:47;9.95;;;4.53;;
78783;SDS011;68127;51.050;14.084;2023-11-18T14:44:13;13.73;;;5.55;;
78783;SDS011;68127;51.050;14.084;2023-11-18T14:46:38;9.43;;;4.60;;
78783;SDS011;68127;51.050;14.084;2023-11-18T14:49:04;6.85;;;3.63;;
78783;SDS011;68127;51.050;14.084;2023-11-18T14:51:30;6.28;;;3.22;;
78783;SDS011;68127;51.050;14.084;2023-11-18T14:53:56;6.35;;;3.58;;
78783;SDS011;68127;51.050;14.084;2023-11-18T14:56:21;6.80;;;3.45;;
78783;SDS011;68127;51.050;14.084;2023-11-18T14:58:46;5.32;;;3.30;;
78783;SDS011;68127;51.050;14.084;2023-11-18T15:01:14;7.47;;;3.70;;
78783;SDS011;68127;51.050;14.084;2023-11-18T15:03:40;7.30;;;4.40;;
78783;SDS011;68127;51.050;14.084;2023-11-18T15:06:05;8.77;;;4.35;;